sensor_id;sensor_type;location;lat;lon;timestamp;P1;durP1;ratioP1;P2;durP2;ratioP2
71091;SDS011;58751;50.708;7.134;2022-08-21T00:02:25;8.53;;;7.00;;
71091;SDS011;58751;50.708;7.134;2022-08-21T00:04:51;8.03;;;6.57;;
71091;SDS011;58751;50.708;7.134;2022-08-21T00:07:17;16.97;;;8.07;;
71091;SDS011;58751;50.708;7.134;2022-08-21T00:09:42;6.53;;;5.93;;
71091;SDS011;58751;50.708;7.134;2022-08-21T00:12:08;7.10;;;6.40;;
71091;SDS011;58751;50.708;7.134;2022-08-21T00:14:33;8.10;;;6.50;;
71091;SDS011;58751;50.708;7.134;2022-08-21T00:16:59;8.20;;;7.53;;
71091;SDS011;58751;50.708;7.134;2022-08-21T00:19:25;8.97;;;6.17;;
71091;SDS011;58751;50.708;7.134;2022-08-21T00:21:51;12.50;;;7.90;;
71091;SDS011;58751;50.708;7.134;2022-08-21T00:24:16;8.47;;;6.13;;
71091;SDS011;58751;50.708;7.134;2022-08-21T00:26:42;10.50;;;6.73;;
71091;SDS011;58751;50.708;7.134;2022-08-21T00:29:07;8.97;;;6.20;;
71091;SDS011;58751;50.708;7.134;2022-08-21T00:31:32;9.03;;;6.80;;
71091;SDS011;58751;50.708;7.134;2022-08-21T00:33:57;6.43;;;5.93;;
71091;SDS011;58751;50.708;7.134;2022-08-21T00:36:24;8.47;;;6.70;;
71091;SDS011;58751;50.708;7.134;2022-08-21T00:38:49;8.70;;;5.87;;
71091;SDS011;58751;50.708;7.134;2022-08-21T00:41:14;7.13;;;5.63;;
71091;SDS011;58751;50.708;7.134;2022-08-21T00:43:40;8.83;;;6.27;;
71091;SDS011;58751;50.708;7.134;2022-08-21T00:46:05;9.20;;;6.70;;
71091;SDS011;58751;50.708;7.134;2022-08-21T00:48:31;7.40;;;6.20;;
71091;SDS011;58751;50.708;7.134;2022-08-21T00:51:00;8.23;;;6.40;;
71091;SDS011;58751;50.708;7.134;2022-08-21T00:53:27;7.03;;;6.33;;
71091;SDS011;58751;50.708;7.134;2022-08-21T00:55:53;7.40;;;6.03;;
71091;SDS011;58751;50.708;7.134;2022-08-21T00:58:19;7.27;;;6.10;;
71091;SDS011;58751;50.708;7.134;2022-08-21T01:00:49;7.07;;;5.90;;
71091;SDS011;58751;50.708;7.134;2022-08-21T01:03:15;5.07;;;4.50;;
71091;SDS011;58751;50.708;7.134;2022-08-21T01:05:41;5.43;;;4.90;;
71091;SDS011;58751;50.708;7.134;2022-08-21T01:08:07;8.20;;;5.30;;
71091;SDS011;58751;50.708;7.134;2022-08-21T01:10:34;6.90;;;6.30;;
71091;SDS011;58751;50.708;7.134;2022-08-21T01:12:59;5.33;;;4.83;;
71091;SDS011;58751;50.708;7.134;2022-08-21T01:15:26;7.63;;;5.53;;
71091;SDS011;58751;50.708;7.134;2022-08-21T01:17:52;6.83;;;5.43;;
71091;SDS011;58751;50.708;7.134;2022-08-21T01:20:18;7.47;;;5.57;;
71091;SDS011;58751;50.708;7.134;2022-08-21T01:22:44;7.77;;;5.80;;
71091;SDS011;58751;50.708;7.134;2022-08-21T01:25:10;7.40;;;5.20;;
71091;SDS011;58751;50.708;7.134;2022-08-21T01:27:36;9.30;;;6.50;;
71091;SDS011;58751;50.708;7.134;2022-08-21T01:30:08;7.33;;;5.53;;
71091;SDS011;58751;50.708;7.134;2022-08-21T01:32:34;6.80;;;6.07;;
71091;SDS011;58751;50.708;7.134;2022-08-21T01:34:59;6.63;;;5.10;;
71091;SDS011;58751;50.708;7.134;2022-08-21T01:37:24;11.40;;;6.53;;
71091;SDS011;58751;50.708;7.134;2022-08-21T01:39:51;12.83;;;6.43;;
71091;SDS011;58751;50.708;7.134;2022-08-21T01:42:16;7.80;;;5.83;;
71091;SDS011;58751;50.708;7.134;2022-08-21T01:44:42;6.67;;;5.77;;
71091;SDS011;58751;50.708;7.134;2022-08-21T01:47:08;8.07;;;5.80;;
71091;SDS011;58751;50.708;7.134;2022-08-21T01:49:33;7.87;;;5.93;;
71091;SDS011;58751;50.708;7.134;2022-08-21T01:51:59;7.60;;;6.30;;
71091;SDS011;58751;50.708;7.134;2022-08-21T01:54:24;9.47;;;6.10;;
71091;SDS011;58751;50.708;7.134;2022-08-21T01:56:51;7.27;;;5.47;;
71091;SDS011;58751;50.708;7.134;2022-08-21T01:59:17;6.20;;;5.60;;
71091;SDS011;58751;50.708;7.134;2022-08-21T02:01:42;9.63;;;6.70;;
71091;SDS011;58751;50.708;7.134;2022-08-21T02:04:09;5.70;;;5.10;;
71091;SDS011;58751;50.708;7.134;2022-08-21T02:06:34;6.93;;;5.20;;
71091;SDS011;58751;50.708;7.134;2022-08-21T02:09:00;7.47;;;6.10;;
71091;SDS011;58751;50.708;7.134;2022-08-21T02:11:25;7.90;;;7.00;;
71091;SDS011;58751;50.708;7.134;2022-08-21T02:13:51;7.97;;;5.67;;
71091;SDS011;58751;50.708;7.134;2022-08-21T02:16:17;6.40;;;5.50;;
71091;SDS011;58751;50.708;7.134;2022-08-21T02:18:42;9.43;;;5.60;;
71091;SDS011;58751;50.708;7.134;2022-08-21T02:21:07;8.70;;;5.83;;
71091;SDS011;58751;50.708;7.134;2022-08-21T02:23:33;8.27;;;6.77;;
71091;SDS011;58751;50.708;7.134;2022-08-21T02:25:58;6.97;;;6.33;;
71091;SDS011;58751;50.708;7.134;2022-08-21T02:28:24;8.57;;;6.70;;
71091;SDS011;58751;50.708;7.134;2022-08-21T02:30:50;13.37;;;7.50;;
71091;SDS011;58751;50.708;7.134;2022-08-21T02:33:16;7.32;;;6.25;;
71091;SDS011;58751;50.708;7.134;2022-08-21T02:35:43;9.83;;;7.90;;
71091;SDS011;58751;50.708;7.134;2022-08-21T02:38:09;7.68;;;6.60;;
71091;SDS011;58751;50.708;7.134;2022-08-21T02:40:36;7.10;;;6.50;;
71091;SDS011;58751;50.708;7.134;2022-08-21T02:43:02;11.63;;;7.10;;
71091;SDS011;58751;50.708;7.134;2022-08-21T02:45:28;9.45;;;5.70;;
71091;SDS011;58751;50.708;7.134;2022-08-21T02:47:56;7.70;;;5.97;;
71091;SDS011;58751;50.708;7.134;2022-08-21T02:50:23;8.10;;;7.40;;
71091;SDS011;58751;50.708;7.134;2022-08-21T02:52:48;6.68;;;5.95;;
71091;SDS011;58751;50.708;7.134;2022-08-21T02:55:14;9.97;;;6.70;;
71091;SDS011;58751;50.708;7.134;2022-08-21T02:57:39;7.40;;;6.03;;
71091;SDS011;58751;50.708;7.134;2022-08-21T03:00:05;7.80;;;6.40;;
71091;SDS011;58751;50.708;7.134;2022-08-21T03:02:30;9.90;;;6.57;;
71091;SDS011;58751;50.708;7.134;2022-08-21T03:04:57;7.97;;;6.40;;
71091;SDS011;58751;50.708;7.134;2022-08-21T03:07:22;7.63;;;6.47;;
71091;SDS011;58751;50.708;7.134;2022-08-21T03:09:48;7.90;;;7.03;;
71091;SDS011;58751;50.708;7.134;2022-08-21T03:12:13;7.33;;;6.63;;
71091;SDS011;58751;50.708;7.134;2022-08-21T03:14:38;8.63;;;6.97;;
71091;SDS011;58751;50.708;7.134;2022-08-21T03:17:04;9.30;;;7.73;;
71091;SDS011;58751;50.708;7.134;2022-08-21T03:19:29;7.70;;;6.97;;
71091;SDS011;58751;50.708;7.134;2022-08-21T03:21:55;10.73;;;7.40;;
71091;SDS011;58751;50.708;7.134;2022-08-21T03:24:21;7.65;;;6.80;;
71091;SDS011;58751;50.708;7.134;2022-08-21T03:26:46;8.23;;;6.57;;
71091;SDS011;58751;50.708;7.134;2022-08-21T03:29:11;6.83;;;6.23;;
71091;SDS011;58751;50.708;7.134;2022-08-21T03:31:36;8.23;;;5.90;;
71091;SDS011;58751;50.708;7.134;2022-08-21T03:34:01;6.53;;;6.03;;
71091;SDS011;58751;50.708;7.134;2022-08-21T03:36:27;6.90;;;6.30;;
71091;SDS011;58751;50.708;7.134;2022-08-21T03:38:53;8.53;;;6.97;;
71091;SDS011;58751;50.708;7.134;2022-08-21T03:41:18;7.38;;;6.63;;
71091;SDS011;58751;50.708;7.134;2022-08-21T03:43:44;9.73;;;6.77;;
71091;SDS011;58751;50.708;7.134;2022-08-21T03:46:09;7.07;;;6.43;;
71091;SDS011;58751;50.708;7.134;2022-08-21T03:48:35;9.80;;;7.10;;
71091;SDS011;58751;50.708;7.134;2022-08-21T03:51:01;8.65;;;6.78;;
71091;SDS011;58751;50.708;7.134;2022-08-21T03:53:26;11.70;;;7.53;;
71091;SDS011;58751;50.708;7.134;2022-08-21T03:55:53;7.20;;;6.50;;
71091;SDS011;58751;50.708;7.134;2022-08-21T03:58:19;9.27;;;7.18;;
71091;SDS011;58751;50.708;7.134;2022-08-21T04:00:45;9.43;;;8.18;;
71091;SDS011;58751;50.708;7.134;2022-08-21T04:03:11;8.83;;;7.47;;
71091;SDS011;58751;50.708;7.134;2022-08-21T04:05:36;11.10;;;7.20;;
71091;SDS011;58751;50.708;7.134;2022-08-21T04:08:02;8.40;;;7.53;;
71091;SDS011;58751;50.708;7.134;2022-08-21T04:10:29;8.57;;;7.72;;
71091;SDS011;58751;50.708;7.134;2022-08-21T04:12:56;9.07;;;7.15;;
71091;SDS011;58751;50.708;7.134;2022-08-21T04:15:21;9.48;;;7.68;;
71091;SDS011;58751;50.708;7.134;2022-08-21T04:17:47;11.30;;;7.90;;
71091;SDS011;58751;50.708;7.134;2022-08-21T04:20:12;8.97;;;6.90;;
71091;SDS011;58751;50.708;7.134;2022-08-21T04:22:37;8.50;;;7.70;;
71091;SDS011;58751;50.708;7.134;2022-08-21T04:25:03;10.30;;;6.70;;
71091;SDS011;58751;50.708;7.134;2022-08-21T04:27:28;8.93;;;8.07;;
71091;SDS011;58751;50.708;7.134;2022-08-21T04:29:55;10.77;;;7.93;;
71091;SDS011;58751;50.708;7.134;2022-08-21T04:32:21;13.60;;;8.40;;
71091;SDS011;58751;50.708;7.134;2022-08-21T04:34:46;9.68;;;7.28;;
71091;SDS011;58751;50.708;7.134;2022-08-21T04:37:12;8.87;;;7.90;;
71091;SDS011;58751;50.708;7.134;2022-08-21T04:39:37;10.47;;;7.40;;
71091;SDS011;58751;50.708;7.134;2022-08-21T04:42:02;9.17;;;8.20;;
71091;SDS011;58751;50.708;7.134;2022-08-21T04:44:27;7.73;;;7.00;;
71091;SDS011;58751;50.708;7.134;2022-08-21T04:46:54;8.90;;;7.60;;
71091;SDS011;58751;50.708;7.134;2022-08-21T04:49:19;12.45;;;8.80;;
71091;SDS011;58751;50.708;7.134;2022-08-21T04:51:44;11.63;;;8.37;;
71091;SDS011;58751;50.708;7.134;2022-08-21T04:54:10;9.43;;;8.50;;
71091;SDS011;58751;50.708;7.134;2022-08-21T04:56:38;8.80;;;7.90;;
71091;SDS011;58751;50.708;7.134;2022-08-21T04:59:05;9.45;;;7.38;;
71091;SDS011;58751;50.708;7.134;2022-08-21T05:01:32;7.72;;;7.10;;
71091;SDS011;58751;50.708;7.134;2022-08-21T05:04:00;11.18;;;8.30;;
71091;SDS011;58751;50.708;7.134;2022-08-21T05:06:27;11.63;;;7.63;;
71091;SDS011;58751;50.708;7.134;2022-08-21T05:08:53;7.97;;;7.20;;
71091;SDS011;58751;50.708;7.134;2022-08-21T05:11:20;11.88;;;7.88;;
71091;SDS011;58751;50.708;7.134;2022-08-21T05:13:45;10.27;;;7.90;;
71091;SDS011;58751;50.708;7.134;2022-08-21T05:16:10;8.63;;;7.10;;
71091;SDS011;58751;50.708;7.134;2022-08-21T05:18:36;9.00;;;7.53;;
71091;SDS011;58751;50.708;7.134;2022-08-21T05:21:02;14.60;;;8.40;;
71091;SDS011;58751;50.708;7.134;2022-08-21T05:23:28;10.90;;;8.25;;
71091;SDS011;58751;50.708;7.134;2022-08-21T05:25:53;8.73;;;7.80;;
71091;SDS011;58751;50.708;7.134;2022-08-21T05:28:18;7.93;;;6.77;;
71091;SDS011;58751;50.708;7.134;2022-08-21T05:30:44;7.97;;;7.27;;
71091;SDS011;58751;50.708;7.134;2022-08-21T05:33:09;8.00;;;7.20;;
71091;SDS011;58751;50.708;7.134;2022-08-21T05:35:34;7.53;;;6.90;;
71091;SDS011;58751;50.708;7.134;2022-08-21T05:38:01;10.80;;;7.10;;
71091;SDS011;58751;50.708;7.134;2022-08-21T05:40:26;8.20;;;6.90;;
71091;SDS011;58751;50.708;7.134;2022-08-21T05:42:52;15.27;;;7.67;;
71091;SDS011;58751;50.708;7.134;2022-08-21T05:45:17;8.30;;;6.67;;
71091;SDS011;58751;50.708;7.134;2022-08-21T05:47:43;9.43;;;6.40;;
71091;SDS011;58751;50.708;7.134;2022-08-21T05:50:08;8.47;;;7.67;;
71091;SDS011;58751;50.708;7.134;2022-08-21T05:52:33;6.27;;;5.50;;
71091;SDS011;58751;50.708;7.134;2022-08-21T05:55:00;7.30;;;6.60;;
71091;SDS011;58751;50.708;7.134;2022-08-21T05:57:25;10.90;;;6.87;;
71091;SDS011;58751;50.708;7.134;2022-08-21T05:59:50;12.33;;;5.67;;
71091;SDS011;58751;50.708;7.134;2022-08-21T06:02:16;8.10;;;5.60;;
71091;SDS011;58751;50.708;7.134;2022-08-21T06:04:41;9.00;;;5.80;;
71091;SDS011;58751;50.708;7.134;2022-08-21T06:07:07;6.10;;;5.50;;
71091;SDS011;58751;50.708;7.134;2022-08-21T06:09:32;6.83;;;5.60;;
71091;SDS011;58751;50.708;7.134;2022-08-21T06:12:02;8.20;;;5.70;;
71091;SDS011;58751;50.708;7.134;2022-08-21T06:14:27;7.57;;;4.80;;
71091;SDS011;58751;50.708;7.134;2022-08-21T06:16:52;5.93;;;5.03;;
71091;SDS011;58751;50.708;7.134;2022-08-21T06:19:18;6.83;;;5.77;;
71091;SDS011;58751;50.708;7.134;2022-08-21T06:21:43;7.47;;;4.90;;
71091;SDS011;58751;50.708;7.134;2022-08-21T06:24:08;5.60;;;5.10;;
71091;SDS011;58751;50.708;7.134;2022-08-21T06:26:33;6.60;;;6.00;;
71091;SDS011;58751;50.708;7.134;2022-08-21T06:29:00;9.40;;;5.37;;
71091;SDS011;58751;50.708;7.134;2022-08-21T06:31:26;9.93;;;5.27;;
71091;SDS011;58751;50.708;7.134;2022-08-21T06:33:52;5.80;;;4.80;;
71091;SDS011;58751;50.708;7.134;2022-08-21T06:36:17;6.70;;;4.57;;
71091;SDS011;58751;50.708;7.134;2022-08-21T06:38:42;6.67;;;5.10;;
71091;SDS011;58751;50.708;7.134;2022-08-21T06:41:08;6.10;;;4.50;;
71091;SDS011;58751;50.708;7.134;2022-08-21T06:43:33;6.03;;;4.23;;
71091;SDS011;58751;50.708;7.134;2022-08-21T06:46:00;7.10;;;4.83;;
71091;SDS011;58751;50.708;7.134;2022-08-21T06:48:25;6.10;;;5.10;;
71091;SDS011;58751;50.708;7.134;2022-08-21T06:50:51;5.93;;;4.57;;
71091;SDS011;58751;50.708;7.134;2022-08-21T06:53:18;5.33;;;4.67;;
71091;SDS011;58751;50.708;7.134;2022-08-21T06:55:43;10.97;;;4.73;;
71091;SDS011;58751;50.708;7.134;2022-08-21T06:58:09;8.73;;;5.20;;
71091;SDS011;58751;50.708;7.134;2022-08-21T07:00:35;5.87;;;4.30;;
71091;SDS011;58751;50.708;7.134;2022-08-21T07:03:01;5.63;;;4.20;;
71091;SDS011;58751;50.708;7.134;2022-08-21T07:05:28;6.33;;;5.20;;
71091;SDS011;58751;50.708;7.134;2022-08-21T07:07:53;7.17;;;4.80;;
71091;SDS011;58751;50.708;7.134;2022-08-21T07:10:18;5.37;;;4.60;;
71091;SDS011;58751;50.708;7.134;2022-08-21T07:12:43;5.10;;;4.27;;
71091;SDS011;58751;50.708;7.134;2022-08-21T07:15:09;4.80;;;4.20;;
71091;SDS011;58751;50.708;7.134;2022-08-21T07:17:34;7.77;;;4.97;;
71091;SDS011;58751;50.708;7.134;2022-08-21T07:20:01;6.30;;;5.03;;
71091;SDS011;58751;50.708;7.134;2022-08-21T07:22:26;5.37;;;4.27;;
71091;SDS011;58751;50.708;7.134;2022-08-21T07:24:52;5.50;;;4.80;;
71091;SDS011;58751;50.708;7.134;2022-08-21T07:27:17;5.10;;;4.60;;
71091;SDS011;58751;50.708;7.134;2022-08-21T07:29:42;5.00;;;4.50;;
71091;SDS011;58751;50.708;7.134;2022-08-21T07:32:07;7.17;;;4.90;;
71091;SDS011;58751;50.708;7.134;2022-08-21T07:34:33;4.27;;;3.87;;
71091;SDS011;58751;50.708;7.134;2022-08-21T07:36:59;3.87;;;3.57;;
71091;SDS011;58751;50.708;7.134;2022-08-21T07:39:25;4.40;;;3.90;;
71091;SDS011;58751;50.708;7.134;2022-08-21T07:41:50;4.40;;;3.43;;
71091;SDS011;58751;50.708;7.134;2022-08-21T07:44:15;4.53;;;3.83;;
71091;SDS011;58751;50.708;7.134;2022-08-21T07:46:40;7.10;;;4.00;;
71091;SDS011;58751;50.708;7.134;2022-08-21T07:49:06;5.80;;;4.27;;
71091;SDS011;58751;50.708;7.134;2022-08-21T07:51:31;5.57;;;3.60;;
71091;SDS011;58751;50.708;7.134;2022-08-21T07:53:58;7.23;;;4.00;;
71091;SDS011;58751;50.708;7.134;2022-08-21T07:56:23;5.23;;;3.93;;
71091;SDS011;58751;50.708;7.134;2022-08-21T07:58:48;4.83;;;3.60;;
71091;SDS011;58751;50.708;7.134;2022-08-21T08:01:14;5.10;;;3.67;;
71091;SDS011;58751;50.708;7.134;2022-08-21T08:03:39;4.33;;;3.87;;
71091;SDS011;58751;50.708;7.134;2022-08-21T08:06:04;5.20;;;4.20;;
71091;SDS011;58751;50.708;7.134;2022-08-21T08:08:30;4.73;;;4.00;;
71091;SDS011;58751;50.708;7.134;2022-08-21T08:10:57;6.90;;;4.20;;
71091;SDS011;58751;50.708;7.134;2022-08-21T08:13:23;6.33;;;4.03;;
71091;SDS011;58751;50.708;7.134;2022-08-21T08:15:48;6.20;;;4.30;;
71091;SDS011;58751;50.708;7.134;2022-08-21T08:18:13;6.03;;;3.70;;
71091;SDS011;58751;50.708;7.134;2022-08-21T08:20:38;7.73;;;4.13;;
71091;SDS011;58751;50.708;7.134;2022-08-21T08:23:04;5.20;;;4.33;;
71091;SDS011;58751;50.708;7.134;2022-08-21T08:25:29;4.23;;;3.60;;
71091;SDS011;58751;50.708;7.134;2022-08-21T08:27:55;6.40;;;3.57;;
71091;SDS011;58751;50.708;7.134;2022-08-21T08:30:21;4.27;;;3.20;;
71091;SDS011;58751;50.708;7.134;2022-08-21T08:32:46;5.43;;;3.43;;
71091;SDS011;58751;50.708;7.134;2022-08-21T08:35:12;4.73;;;3.43;;
71091;SDS011;58751;50.708;7.134;2022-08-21T08:37:38;5.07;;;3.17;;
71091;SDS011;58751;50.708;7.134;2022-08-21T08:40:04;5.23;;;3.40;;
71091;SDS011;58751;50.708;7.134;2022-08-21T08:42:31;3.80;;;3.13;;
71091;SDS011;58751;50.708;7.134;2022-08-21T08:44:59;4.40;;;3.27;;
71091;SDS011;58751;50.708;7.134;2022-08-21T08:47:25;4.07;;;3.60;;
71091;SDS011;58751;50.708;7.134;2022-08-21T08:49:53;4.97;;;3.87;;
71091;SDS011;58751;50.708;7.134;2022-08-21T08:52:20;11.10;;;3.40;;
71091;SDS011;58751;50.708;7.134;2022-08-21T08:54:47;4.90;;;3.40;;
71091;SDS011;58751;50.708;7.134;2022-08-21T08:57:15;5.43;;;3.87;;
71091;SDS011;58751;50.708;7.134;2022-08-21T08:59:41;4.87;;;3.30;;
71091;SDS011;58751;50.708;7.134;2022-08-21T09:02:09;3.90;;;3.37;;
71091;SDS011;58751;50.708;7.134;2022-08-21T09:04:35;4.17;;;2.90;;
71091;SDS011;58751;50.708;7.134;2022-08-21T09:07:04;4.77;;;2.80;;
71091;SDS011;58751;50.708;7.134;2022-08-21T09:09:34;3.60;;;2.30;;
71091;SDS011;58751;50.708;7.134;2022-08-21T09:12:04;5.17;;;2.80;;
71091;SDS011;58751;50.708;7.134;2022-08-21T09:14:36;4.00;;;2.90;;
71091;SDS011;58751;50.708;7.134;2022-08-21T09:17:09;4.43;;;2.83;;
71091;SDS011;58751;50.708;7.134;2022-08-21T09:19:43;3.50;;;2.57;;
71091;SDS011;58751;50.708;7.134;2022-08-21T09:22:14;3.50;;;2.60;;
71091;SDS011;58751;50.708;7.134;2022-08-21T09:24:43;4.03;;;3.07;;
71091;SDS011;58751;50.708;7.134;2022-08-21T09:27:12;3.10;;;2.80;;
71091;SDS011;58751;50.708;7.134;2022-08-21T09:29:39;5.70;;;2.90;;
71091;SDS011;58751;50.708;7.134;2022-08-21T09:32:09;4.57;;;2.73;;
71091;SDS011;58751;50.708;7.134;2022-08-21T09:34:35;3.50;;;2.60;;
71091;SDS011;58751;50.708;7.134;2022-08-21T09:37:02;7.33;;;2.63;;
71091;SDS011;58751;50.708;7.134;2022-08-21T09:39:28;3.80;;;2.57;;
71091;SDS011;58751;50.708;7.134;2022-08-21T09:41:57;5.83;;;3.40;;
71091;SDS011;58751;50.708;7.134;2022-08-21T09:44:24;5.33;;;3.10;;
71091;SDS011;58751;50.708;7.134;2022-08-21T09:46:50;4.57;;;2.93;;
71091;SDS011;58751;50.708;7.134;2022-08-21T09:49:25;3.87;;;2.50;;
71091;SDS011;58751;50.708;7.134;2022-08-21T09:51:51;4.10;;;2.23;;
71091;SDS011;58751;50.708;7.134;2022-08-21T09:54:29;4.27;;;2.37;;
71091;SDS011;58751;50.708;7.134;2022-08-21T09:56:55;5.00;;;2.20;;
71091;SDS011;58751;50.708;7.134;2022-08-21T09:59:24;5.93;;;2.33;;
71091;SDS011;58751;50.708;7.134;2022-08-21T10:01:51;5.60;;;2.87;;
71091;SDS011;58751;50.708;7.134;2022-08-21T10:04:19;13.77;;;12.57;;
71091;SDS011;58751;50.708;7.134;2022-08-21T10:06:44;4.47;;;2.53;;
71091;SDS011;58751;50.708;7.134;2022-08-21T10:09:11;4.40;;;2.07;;
71091;SDS011;58751;50.708;7.134;2022-08-21T10:11:37;3.43;;;2.30;;
71091;SDS011;58751;50.708;7.134;2022-08-21T10:14:06;4.37;;;2.60;;
71091;SDS011;58751;50.708;7.134;2022-08-21T10:16:37;3.00;;;2.20;;
71091;SDS011;58751;50.708;7.134;2022-08-21T10:19:07;3.17;;;2.20;;
71091;SDS011;58751;50.708;7.134;2022-08-21T10:21:38;3.43;;;2.20;;
71091;SDS011;58751;50.708;7.134;2022-08-21T10:24:07;5.97;;;2.57;;
71091;SDS011;58751;50.708;7.134;2022-08-21T10:26:36;4.50;;;2.20;;
71091;SDS011;58751;50.708;7.134;2022-08-21T10:29:07;5.70;;;2.90;;
71091;SDS011;58751;50.708;7.134;2022-08-21T10:31:37;3.03;;;2.50;;
71091;SDS011;58751;50.708;7.134;2022-08-21T10:34:07;3.47;;;2.37;;
71091;SDS011;58751;50.708;7.134;2022-08-21T10:36:34;2.80;;;2.00;;
71091;SDS011;58751;50.708;7.134;2022-08-21T10:39:04;4.10;;;2.23;;
71091;SDS011;58751;50.708;7.134;2022-08-21T10:41:37;2.20;;;1.87;;
71091;SDS011;58751;50.708;7.134;2022-08-21T10:44:08;3.93;;;2.10;;
71091;SDS011;58751;50.708;7.134;2022-08-21T10:46:41;2.30;;;1.93;;
71091;SDS011;58751;50.708;7.134;2022-08-21T10:49:11;3.30;;;2.03;;
71091;SDS011;58751;50.708;7.134;2022-08-21T10:51:39;3.17;;;1.90;;
71091;SDS011;58751;50.708;7.134;2022-08-21T10:54:07;6.20;;;2.00;;
71091;SDS011;58751;50.708;7.134;2022-08-21T10:56:38;4.13;;;2.17;;
71091;SDS011;58751;50.708;7.134;2022-08-21T10:59:12;6.30;;;2.37;;
71091;SDS011;58751;50.708;7.134;2022-08-21T11:01:44;2.87;;;1.90;;
71091;SDS011;58751;50.708;7.134;2022-08-21T11:04:12;3.07;;;1.83;;
71091;SDS011;58751;50.708;7.134;2022-08-21T11:06:38;2.27;;;2.00;;
71091;SDS011;58751;50.708;7.134;2022-08-21T11:09:07;4.83;;;2.40;;
71091;SDS011;58751;50.708;7.134;2022-08-21T11:11:35;2.47;;;1.73;;
71091;SDS011;58751;50.708;7.134;2022-08-21T11:14:04;2.00;;;1.80;;
71091;SDS011;58751;50.708;7.134;2022-08-21T11:16:36;4.20;;;2.33;;
71091;SDS011;58751;50.708;7.134;2022-08-21T11:19:04;2.23;;;1.80;;
71091;SDS011;58751;50.708;7.134;2022-08-21T11:21:36;3.30;;;2.60;;
71091;SDS011;58751;50.708;7.134;2022-08-21T11:24:03;3.40;;;2.13;;
71091;SDS011;58751;50.708;7.134;2022-08-21T11:26:34;4.57;;;2.17;;
71091;SDS011;58751;50.708;7.134;2022-08-21T11:29:02;3.80;;;2.00;;
71091;SDS011;58751;50.708;7.134;2022-08-21T11:31:33;4.93;;;2.60;;
71091;SDS011;58751;50.708;7.134;2022-08-21T11:34:07;4.00;;;1.93;;
71091;SDS011;58751;50.708;7.134;2022-08-21T11:36:36;4.07;;;2.40;;
71091;SDS011;58751;50.708;7.134;2022-08-21T11:39:06;3.50;;;2.30;;
71091;SDS011;58751;50.708;7.134;2022-08-21T11:41:37;3.60;;;2.27;;
71091;SDS011;58751;50.708;7.134;2022-08-21T11:46:47;4.30;;;1.73;;
71091;SDS011;58751;50.708;7.134;2022-08-21T11:49:28;2.07;;;1.87;;
71091;SDS011;58751;50.708;7.134;2022-08-21T11:52:01;1.80;;;1.60;;
71091;SDS011;58751;50.708;7.134;2022-08-21T11:54:28;4.30;;;2.50;;
71091;SDS011;58751;50.708;7.134;2022-08-21T11:56:57;2.80;;;2.17;;
71091;SDS011;58751;50.708;7.134;2022-08-21T11:59:28;2.80;;;2.13;;
71091;SDS011;58751;50.708;7.134;2022-08-21T12:01:56;3.17;;;2.40;;
71091;SDS011;58751;50.708;7.134;2022-08-21T12:04:28;4.77;;;1.87;;
71091;SDS011;58751;50.708;7.134;2022-08-21T12:06:53;4.10;;;2.30;;
71091;SDS011;58751;50.708;7.134;2022-08-21T12:09:30;3.67;;;2.10;;
71091;SDS011;58751;50.708;7.134;2022-08-21T12:12:00;2.60;;;1.83;;
71091;SDS011;58751;50.708;7.134;2022-08-21T12:14:34;3.50;;;2.30;;
71091;SDS011;58751;50.708;7.134;2022-08-21T12:17:03;2.33;;;1.50;;
71091;SDS011;58751;50.708;7.134;2022-08-21T12:19:30;6.23;;;2.00;;
71091;SDS011;58751;50.708;7.134;2022-08-21T12:21:58;1.93;;;1.60;;
71091;SDS011;58751;50.708;7.134;2022-08-21T12:24:32;2.87;;;2.17;;
71091;SDS011;58751;50.708;7.134;2022-08-21T12:26:57;2.50;;;2.00;;
71091;SDS011;58751;50.708;7.134;2022-08-21T12:29:24;2.43;;;1.97;;
71091;SDS011;58751;50.708;7.134;2022-08-21T12:31:52;2.40;;;2.10;;
71091;SDS011;58751;50.708;7.134;2022-08-21T12:34:17;3.80;;;2.13;;
71091;SDS011;58751;50.708;7.134;2022-08-21T12:36:46;2.20;;;2.00;;
71091;SDS011;58751;50.708;7.134;2022-08-21T12:39:17;2.00;;;1.70;;
71091;SDS011;58751;50.708;7.134;2022-08-21T12:41:48;4.30;;;2.00;;
71091;SDS011;58751;50.708;7.134;2022-08-21T12:44:14;4.63;;;2.17;;
71091;SDS011;58751;50.708;7.134;2022-08-21T12:46:43;3.13;;;2.23;;
71091;SDS011;58751;50.708;7.134;2022-08-21T12:49:12;3.00;;;2.23;;
71091;SDS011;58751;50.708;7.134;2022-08-21T12:51:46;7.40;;;2.23;;
71091;SDS011;58751;50.708;7.134;2022-08-21T12:54:22;4.13;;;2.10;;
71091;SDS011;58751;50.708;7.134;2022-08-21T12:56:54;4.93;;;2.20;;
71091;SDS011;58751;50.708;7.134;2022-08-21T12:59:20;3.13;;;1.90;;
71091;SDS011;58751;50.708;7.134;2022-08-21T13:01:46;2.60;;;2.10;;
71091;SDS011;58751;50.708;7.134;2022-08-21T13:04:12;3.40;;;2.00;;
71091;SDS011;58751;50.708;7.134;2022-08-21T13:06:39;4.13;;;1.80;;
71091;SDS011;58751;50.708;7.134;2022-08-21T13:09:06;3.23;;;1.63;;
71091;SDS011;58751;50.708;7.134;2022-08-21T13:11:33;2.30;;;1.70;;
71091;SDS011;58751;50.708;7.134;2022-08-21T13:14:00;2.83;;;2.20;;
71091;SDS011;58751;50.708;7.134;2022-08-21T13:16:26;3.10;;;2.30;;
71091;SDS011;58751;50.708;7.134;2022-08-21T13:18:53;3.10;;;1.73;;
71091;SDS011;58751;50.708;7.134;2022-08-21T13:21:18;3.63;;;1.80;;
71091;SDS011;58751;50.708;7.134;2022-08-21T13:23:44;2.57;;;1.63;;
71091;SDS011;58751;50.708;7.134;2022-08-21T13:26:12;2.50;;;1.90;;
71091;SDS011;58751;50.708;7.134;2022-08-21T13:28:39;3.07;;;1.70;;
71091;SDS011;58751;50.708;7.134;2022-08-21T13:31:06;4.33;;;1.87;;
71091;SDS011;58751;50.708;7.134;2022-08-21T13:33:31;4.10;;;1.90;;
71091;SDS011;58751;50.708;7.134;2022-08-21T13:36:03;2.43;;;1.73;;
71091;SDS011;58751;50.708;7.134;2022-08-21T13:38:30;2.40;;;1.70;;
71091;SDS011;58751;50.708;7.134;2022-08-21T13:40:56;2.17;;;1.80;;
71091;SDS011;58751;50.708;7.134;2022-08-21T13:43:25;4.27;;;2.00;;
71091;SDS011;58751;50.708;7.134;2022-08-21T13:45:53;2.30;;;1.90;;
71091;SDS011;58751;50.708;7.134;2022-08-21T13:48:18;4.40;;;1.80;;
71091;SDS011;58751;50.708;7.134;2022-08-21T13:50:44;1.30;;;1.20;;
71091;SDS011;58751;50.708;7.134;2022-08-21T13:53:19;2.13;;;1.90;;
71091;SDS011;58751;50.708;7.134;2022-08-21T13:55:45;2.53;;;1.93;;
71091;SDS011;58751;50.708;7.134;2022-08-21T13:58:10;1.73;;;1.50;;
71091;SDS011;58751;50.708;7.134;2022-08-21T14:00:43;2.93;;;1.90;;
71091;SDS011;58751;50.708;7.134;2022-08-21T14:03:11;2.20;;;1.97;;
71091;SDS011;58751;50.708;7.134;2022-08-21T14:05:43;2.10;;;1.80;;
71091;SDS011;58751;50.708;7.134;2022-08-21T14:08:10;3.00;;;1.90;;
71091;SDS011;58751;50.708;7.134;2022-08-21T14:10:50;2.40;;;2.00;;
71091;SDS011;58751;50.708;7.134;2022-08-21T14:16:02;7.77;;;7.07;;
71091;SDS011;58751;50.708;7.134;2022-08-21T14:18:29;3.60;;;3.30;;
71091;SDS011;58751;50.708;7.134;2022-08-21T14:21:03;3.53;;;2.03;;
71091;SDS011;58751;50.708;7.134;2022-08-21T14:23:29;4.60;;;2.00;;
71091;SDS011;58751;50.708;7.134;2022-08-21T14:25:54;3.60;;;2.23;;
71091;SDS011;58751;50.708;7.134;2022-08-21T14:28:23;2.23;;;1.90;;
71091;SDS011;58751;50.708;7.134;2022-08-21T14:30:49;3.60;;;2.30;;
71091;SDS011;58751;50.708;7.134;2022-08-21T14:33:18;2.37;;;1.67;;
71091;SDS011;58751;50.708;7.134;2022-08-21T14:35:45;3.20;;;2.40;;
71091;SDS011;58751;50.708;7.134;2022-08-21T14:38:11;3.03;;;2.00;;
71091;SDS011;58751;50.708;7.134;2022-08-21T14:40:36;4.27;;;1.80;;
71091;SDS011;58751;50.708;7.134;2022-08-21T14:43:02;3.80;;;2.30;;
71091;SDS011;58751;50.708;7.134;2022-08-21T14:45:28;2.97;;;2.47;;
71091;SDS011;58751;50.708;7.134;2022-08-21T14:47:53;4.60;;;2.10;;
71091;SDS011;58751;50.708;7.134;2022-08-21T14:50:19;2.50;;;1.93;;